Time;durP1;ratioP1;P1;durP2;ratioP2;P2;SDS_P1;SDS_P2;PMS_P1;PMS_P2;Temp;Humidity;BMP_temperature;BMP_pressure;BME280_temperature;BME280_humidity;BME280_pressure;Samples;Min_cycle;Max_cycle;Signal;HPM_P1;HPM_P2
2021/04/07 00:01:58;;;;;;;7.70;2.03;;;;;;;3.32;100.00;100018.00;4929470;29;20032;-75
2021/04/07 00:04:23;;;;;;;8.73;1.95;;;;;;;3.32;100.00;100015.34;4931102;29;20032;-74
2021/04/07 00:06:49;;;;;;;17.48;2.42;;;;;;;3.42;100.00;100023.75;4931535;29;20104;-74
2021/04/07 00:09:14;;;;;;;7.47;1.73;;;;;;;3.27;100.00;100016.31;4934613;29;20031;-74
2021/04/07 00:11:40;;;;;;;10.98;1.92;;;;;;;3.32;100.00;100018.81;4935906;29;20123;-76
2021/04/07 00:14:08;;;;;;;5.30;2.03;;;;;;;3.29;100.00;100018.66;4934423;29;20039;-77
2021/04/07 00:16:34;;;;;;;7.38;1.92;;;;;;;3.18;100.00;100028.88;4923240;29;20091;-77
2021/04/07 00:19:00;;;;;;;15.70;2.35;;;;;;;3.22;100.00;100005.88;4931759;29;20083;-77
2021/04/07 00:21:26;;;;;;;9.50;2.30;;;;;;;3.30;100.00;100012.22;4913506;29;20028;-73
2021/04/07 00:23:55;;;;;;;9.15;2.08;;;;;;;3.31;99.67;100009.25;4927793;29;20348;-77
2021/04/07 00:26:20;;;;;;;13.93;2.55;;;;;;;3.31;99.72;100011.91;4933313;29;20473;-77
2021/04/07 00:28:45;;;;;;;13.77;2.30;;;;;;;3.37;99.71;100021.25;4916126;29;20028;-76
2021/04/07 00:31:11;;;;;;;10.20;2.58;;;;;;;3.32;99.82;100012.69;4918720;29;20110;-76
2021/04/07 00:33:36;;;;;;;9.90;1.98;;;;;;;3.34;99.75;100013.94;4922310;29;20099;-75
2021/04/07 00:36:02;;;;;;;12.73;2.17;;;;;;;3.51;98.68;100019.16;4914215;29;20111;-77
2021/04/07 00:38:27;;;;;;;9.27;1.85;;;;;;;3.35;99.02;100012.81;4917323;29;20078;-73
2021/04/07 00:40:53;;;;;;;14.02;2.13;;;;;;;3.39;99.14;100013.75;4920466;29;20031;-75
2021/04/07 00:43:18;;;;;;;9.48;2.10;;;;;;;3.18;99.43;100028.09;4914182;29;20036;-76
2021/04/07 00:45:43;;;;;;;9.52;1.52;;;;;;;3.24;100.00;100011.66;4916864;29;20409;-76
2021/04/07 00:48:10;;;;;;;17.85;1.92;;;;;;;3.20;100.00;100016.03;4920231;29;20048;-75
2021/04/07 00:50:35;;;;;;;12.43;1.80;;;;;;;3.21;99.80;100024.81;4914432;29;20024;-77
2021/04/07 00:53:02;;;;;;;17.00;2.25;;;;;;;3.27;99.49;100023.53;4920828;29;20031;-75
2021/04/07 00:55:36;;;;;;;9.20;1.83;;;;;;;3.28;100.00;100022.41;4918732;29;20043;-76
2021/04/07 00:58:04;;;;;;;10.48;1.90;;;;;;;3.23;99.34;100026.03;4919429;29;20040;-77
2021/04/07 01:00:30;;;;;;;16.10;2.28;;;;;;;3.17;99.91;100024.69;4917844;29;20040;-77
2021/04/07 01:03:00;;;;;;;10.25;1.92;;;;;;;3.15;100.00;100024.22;4911633;29;20398;-76
2021/04/07 01:05:26;;;;;;;10.85;1.95;;;;;;;3.19;100.00;100032.34;4915167;29;20731;-77
2021/04/07 01:07:54;;;;;;;12.77;1.70;;;;;;;3.14;100.00;100022.66;4916723;29;20032;-75
2021/04/07 01:10:20;;;;;;;11.02;2.17;;;;;;;3.28;99.86;100028.53;4913314;29;20632;-77
2021/04/07 01:12:45;;;;;;;9.55;2.00;;;;;;;3.28;100.00;100036.50;4918613;29;20119;-77
2021/04/07 01:15:13;;;;;;;10.65;1.67;;;;;;;3.35;99.60;100036.75;4921107;29;20405;-77
2021/04/07 01:17:40;;;;;;;17.13;2.75;;;;;;;3.33;99.57;100036.31;4917094;29;20027;-77
2021/04/07 01:20:08;;;;;;;10.50;1.52;;;;;;;3.26;99.90;100035.25;4920718;29;20044;-77
2021/04/07 01:22:35;;;;;;;10.73;1.88;;;;;;;3.21;100.00;100032.78;4924217;29;20126;-77
2021/04/07 01:25:03;;;;;;;8.25;1.58;;;;;;;3.14;99.91;100033.28;4919976;29;20035;-77
2021/04/07 01:27:28;;;;;;;8.88;2.00;;;;;;;3.15;100.00;100026.09;4916787;29;20062;-76
2021/04/07 01:29:54;;;;;;;8.85;1.85;;;;;;;3.33;98.96;100035.56;4919993;29;20063;-77
2021/04/07 01:32:19;;;;;;;21.92;2.35;;;;;;;3.19;98.76;100024.34;4919605;29;20031;-77
2021/04/07 01:34:45;;;;;;;8.43;1.60;;;;;;;3.10;99.72;100032.34;4920233;29;20152;-77
2021/04/07 01:37:15;;;;;;;9.15;1.80;;;;;;;3.13;99.72;100023.75;4917755;29;20119;-76
2021/04/07 01:39:41;;;;;;;7.65;1.92;;;;;;;3.14;99.19;100027.19;4920361;29;20417;-77
2021/04/07 01:42:08;;;;;;;11.48;1.70;;;;;;;3.09;99.56;100024.72;4903004;29;20947;-77
2021/04/07 01:44:36;;;;;;;11.60;1.77;;;;;;;2.99;100.00;100046.34;4921099;29;20028;-76
2021/04/07 01:47:02;;;;;;;8.30;1.67;;;;;;;3.12;100.00;100048.00;4918955;29;20065;-77
2021/04/07 01:49:29;;;;;;;12.98;2.10;;;;;;;3.21;100.00;100049.53;4920310;29;20032;-77
2021/04/07 01:51:54;;;;;;;10.57;2.20;;;;;;;3.24;100.00;100051.53;4921893;29;20046;-77
2021/04/07 01:54:20;;;;;;;11.73;1.90;;;;;;;3.32;100.00;100052.59;4923749;29;20101;-75
2021/04/07 01:56:55;;;;;;;11.05;1.85;;;;;;;3.25;100.00;100061.06;4923691;29;20099;-76
2021/04/07 01:59:26;;;;;;;12.43;1.85;;;;;;;3.29;100.00;100047.94;4925982;29;20050;-75
2021/04/07 02:01:52;;;;;;;9.90;1.92;;;;;;;3.19;100.00;100048.28;4910938;29;20785;-75
2021/04/07 02:04:18;;;;;;;7.97;1.95;;;;;;;3.39;100.00;100048.31;4925715;29;20044;-76
2021/04/07 02:06:45;;;;;;;9.23;1.65;;;;;;;3.27;100.00;100050.88;4910737;29;20035;-76
2021/04/07 02:09:11;;;;;;;11.48;2.10;;;;;;;3.29;100.00;100048.69;4929069;28;20031;-75
2021/04/07 02:11:44;;;;;;;8.07;2.00;;;;;;;3.33;100.00;100049.63;4924915;29;20033;-75
2021/04/07 02:14:12;;;;;;;9.48;1.67;;;;;;;3.26;100.00;100048.56;4928541;29;20547;-75
2021/04/07 02:16:37;;;;;;;12.93;1.85;;;;;;;3.17;100.00;100053.16;4916051;29;20473;-75
2021/04/07 02:19:07;;;;;;;10.20;1.88;;;;;;;3.36;100.00;100051.66;4930313;29;20099;-76
2021/04/07 02:21:33;;;;;;;10.45;2.17;;;;;;;3.25;100.00;100055.00;4927513;29;20040;-75
2021/04/07 02:23:58;;;;;;;5.82;1.45;;;;;;;3.21;100.00;100062.06;4933758;29;20381;-76
2021/04/07 02:26:24;;;;;;;10.30;1.80;;;;;;;3.28;100.00;100064.97;4933138;29;20091;-75
2021/04/07 02:28:49;;;;;;;12.18;2.05;;;;;;;3.14;100.00;100061.75;4924821;29;20385;-75
2021/04/07 02:31:15;;;;;;;9.65;1.98;;;;;;;3.21;100.00;100059.38;4926429;29;20024;-76
2021/04/07 02:33:40;;;;;;;7.03;1.95;;;;;;;3.22;100.00;100058.28;4926074;29;20040;-75
2021/04/07 02:36:06;;;;;;;11.40;2.08;;;;;;;3.29;100.00;100059.34;4926873;29;20115;-75
2021/04/07 02:38:31;;;;;;;12.73;1.52;;;;;;;3.32;100.00;100057.91;4930192;29;20045;-75
2021/04/07 02:40:57;;;;;;;16.23;1.92;;;;;;;3.36;99.78;100061.50;4933210;29;20064;-76
2021/04/07 02:43:22;;;;;;;14.05;2.05;;;;;;;3.33;99.50;100062.91;4931540;29;20521;-75
2021/04/07 02:45:47;;;;;;;8.88;1.55;;;;;;;3.40;98.92;100070.41;4931403;29;20040;-75
2021/04/07 02:48:13;;;;;;;14.13;1.95;;;;;;;3.38;98.48;100067.28;4925254;29;20027;-77
2021/04/07 02:50:38;;;;;;;9.95;1.80;;;;;;;3.40;98.87;100083.72;4928401;29;20512;-75
2021/04/07 02:53:04;;;;;;;12.68;1.50;;;;;;;3.46;98.67;100083.22;4925342;29;20404;-75
2021/04/07 02:55:29;;;;;;;13.05;2.38;;;;;;;3.52;98.30;100081.91;4930106;29;20042;-77
2021/04/07 02:57:55;;;;;;;11.43;2.03;;;;;;;3.34;99.27;100075.13;4927933;29;20040;-75
2021/04/07 03:00:21;;;;;;;9.45;1.92;;;;;;;3.38;99.90;100073.38;4930864;29;20027;-75
2021/04/07 03:02:47;;;;;;;12.40;2.00;;;;;;;3.43;99.53;100075.06;4926875;29;20524;-75
2021/04/07 03:05:13;;;;;;;16.73;2.00;;;;;;;3.45;100.00;100067.53;4929836;29;20040;-75
2021/04/07 03:07:40;;;;;;;12.75;1.90;;;;;;;3.38;99.47;100070.72;4928046;29;20042;-78
2021/04/07 03:10:08;;;;;;;8.57;1.83;;;;;;;3.41;99.71;100062.09;4927802;29;20028;-75
2021/04/07 03:12:33;;;;;;;7.63;2.00;;;;;;;3.38;99.58;100059.31;4926940;29;20440;-75
2021/04/07 03:14:59;;;;;;;17.42;2.38;;;;;;;3.35;99.66;100068.69;4929851;29;20047;-75
2021/04/07 03:17:24;;;;;;;7.25;1.58;;;;;;;3.39;99.68;100069.63;4930550;29;20073;-75
2021/04/07 03:19:50;;;;;;;10.90;1.60;;;;;;;3.33;99.80;100076.22;4928969;29;20397;-76
2021/04/07 03:22:15;;;;;;;6.30;1.70;;;;;;;3.40;99.34;100075.72;4928798;29;20044;-75
2021/04/07 03:24:41;;;;;;;15.57;2.30;;;;;;;3.32;99.38;100069.34;4928851;29;20034;-77
2021/04/07 03:27:06;;;;;;;9.18;1.80;;;;;;;3.43;98.46;100078.53;4926161;29;20038;-75
2021/04/07 03:29:31;;;;;;;11.27;1.48;;;;;;;3.30;98.43;100073.41;4931946;29;20036;-75
2021/04/07 03:31:57;;;;;;;12.57;1.90;;;;;;;3.28;98.59;100064.97;4926498;29;20036;-75
2021/04/07 03:34:22;;;;;;;9.45;1.90;;;;;;;3.25;98.29;100074.38;4928278;29;20040;-77
2021/04/07 03:36:48;;;;;;;8.20;1.98;;;;;;;3.14;98.60;100075.84;4926963;29;20051;-75
2021/04/07 03:39:13;;;;;;;8.13;1.67;;;;;;;3.12;98.35;100071.94;4923313;29;20039;-75
2021/04/07 03:41:39;;;;;;;13.40;1.63;;;;;;;3.04;98.78;100080.75;4920933;29;20036;-74
2021/04/07 03:44:04;;;;;;;13.25;1.63;;;;;;;3.04;99.06;100070.09;4924974;29;20047;-74
2021/04/07 03:46:30;;;;;;;5.20;1.52;;;;;;;3.03;98.15;100069.31;4924253;29;20032;-74
2021/04/07 03:48:55;;;;;;;13.30;1.77;;;;;;;2.91;98.99;100071.06;4927103;29;20063;-75
2021/04/07 03:51:21;;;;;;;11.20;2.10;;;;;;;2.93;98.73;100080.28;4926462;29;20401;-74
2021/04/07 03:53:47;;;;;;;9.43;1.90;;;;;;;2.98;98.49;100077.44;4930388;29;20044;-75
2021/04/07 03:56:13;;;;;;;14.43;2.35;;;;;;;2.97;98.09;100077.78;4929923;29;20493;-76
2021/04/07 03:58:38;;;;;;;9.10;1.77;;;;;;;2.98;98.27;100084.66;4906377;29;20092;-74
2021/04/07 04:01:05;;;;;;;15.23;1.98;;;;;;;2.90;98.48;100091.56;4926273;29;21520;-75
2021/04/07 04:03:31;;;;;;;8.90;2.17;;;;;;;2.92;98.10;100086.72;4924440;29;20089;-75
2021/04/07 04:05:56;;;;;;;13.50;1.40;;;;;;;2.92;98.32;100081.41;4925648;29;20432;-74
2021/04/07 04:08:22;;;;;;;11.32;1.90;;;;;;;2.93;98.06;100093.59;4928429;29;20032;-74
2021/04/07 04:10:47;;;;;;;10.18;2.20;;;;;;;2.93;97.80;100087.47;4925458;29;20016;-74
2021/04/07 04:13:13;;;;;;;12.95;2.08;;;;;;;2.96;97.22;100095.59;4925013;29;20637;-74
2021/04/07 04:15:38;;;;;;;11.05;2.08;;;;;;;2.80;97.72;100097.22;4915306;29;20035;-75
2021/04/07 04:18:08;;;;;;;10.50;2.38;;;;;;;2.92;97.51;100110.66;4929119;29;20039;-74
2021/04/07 04:20:34;;;;;;;13.30;2.28;;;;;;;2.66;98.33;100107.25;4931750;29;20032;-74
2021/04/07 04:23:00;;;;;;;9.63;2.45;;;;;;;2.78;98.15;100107.41;4929173;29;20035;-74
2021/04/07 04:25:25;;;;;;;15.63;2.00;;;;;;;2.65;98.19;100116.34;4923359;29;20039;-77
2021/04/07 04:27:51;;;;;;;7.97;1.88;;;;;;;2.72;98.78;100111.31;4922614;29;20036;-75
2021/04/07 04:30:22;;;;;;;8.40;2.22;;;;;;;2.70;98.71;100110.84;4916989;29;20059;-74
2021/04/07 04:32:49;;;;;;;7.85;1.83;;;;;;;2.72;98.33;100101.47;4928344;29;20224;-74
2021/04/07 04:35:15;;;;;;;15.52;2.95;;;;;;;2.57;98.87;100114.47;4932750;28;20027;-75
2021/04/07 04:37:41;;;;;;;11.27;2.83;;;;;;;2.72;98.52;100112.09;4927345;29;20040;-75
2021/04/07 04:40:12;;;;;;;11.85;2.67;;;;;;;2.60;98.83;100114.63;4925607;29;20091;-74
2021/04/07 04:42:38;;;;;;;16.27;2.85;;;;;;;2.58;98.97;100116.00;4930405;29;20161;-74
2021/04/07 04:45:05;;;;;;;14.40;3.00;;;;;;;2.70;98.16;100100.22;4924666;29;20040;-75
2021/04/07 04:47:30;;;;;;;14.88;3.38;;;;;;;2.52;99.07;100111.97;4926886;29;20039;-74
2021/04/07 04:49:56;;;;;;;15.88;3.40;;;;;;;2.48;99.51;100121.66;4928117;29;20114;-76
2021/04/07 04:52:22;;;;;;;14.02;3.20;;;;;;;2.47;99.42;100120.09;4927465;29;20866;-76
2021/04/07 04:54:48;;;;;;;14.85;3.78;;;;;;;2.55;99.11;100127.28;4927853;29;20040;-75
2021/04/07 04:57:14;;;;;;;12.07;3.50;;;;;;;2.53;98.90;100129.47;4915155;29;20038;-74
2021/04/07 04:59:40;;;;;;;13.00;3.45;;;;;;;2.54;99.22;100136.34;4916939;29;20044;-74
2021/04/07 05:02:05;;;;;;;12.77;3.65;;;;;;;2.65;98.22;100145.56;4915839;29;20075;-75
2021/04/07 05:04:30;;;;;;;14.32;3.40;;;;;;;2.69;98.49;100139.28;4917289;29;20031;-75
2021/04/07 05:06:56;;;;;;;18.38;3.60;;;;;;;2.63;98.90;100142.44;4916353;29;20032;-75
2021/04/07 05:09:21;;;;;;;11.70;3.97;;;;;;;2.61;99.48;100141.97;4920628;29;20039;-76
2021/04/07 05:11:47;;;;;;;12.27;3.55;;;;;;;2.82;99.00;100140.22;4918079;29;20052;-75
2021/04/07 05:14:13;;;;;;;11.27;3.75;;;;;;;2.87;98.15;100137.38;4902412;29;20107;-76
2021/04/07 05:16:38;;;;;;;14.90;3.63;;;;;;;2.79;98.46;100143.50;4915982;29;20044;-75
2021/04/07 05:19:04;;;;;;;8.73;3.42;;;;;;;2.89;98.17;100139.72;4915576;29;20513;-75
2021/04/07 05:21:29;;;;;;;12.50;3.85;;;;;;;2.92;98.12;100155.84;4914984;29;20035;-76
2021/04/07 05:23:55;;;;;;;19.02;4.40;;;;;;;2.92;98.33;100150.53;4918860;29;20040;-75
2021/04/07 05:26:20;;;;;;;12.25;4.05;;;;;;;2.88;98.07;100154.13;4917369;29;20027;-75
2021/04/07 05:28:46;;;;;;;18.40;4.13;;;;;;;2.89;98.40;100145.81;4918298;29;20036;-76
2021/04/07 05:31:15;;;;;;;17.13;3.78;;;;;;;2.83;99.35;100155.06;4918312;29;20095;-75
2021/04/07 05:33:42;;;;;;;19.95;3.72;;;;;;;3.03;98.40;100154.41;4916499;29;20102;-75
2021/04/07 05:36:15;;;;;;;8.82;3.50;;;;;;;3.12;98.00;100165.00;4915434;29;20555;-74
2021/04/07 05:38:41;;;;;;;9.23;3.35;;;;;;;3.06;98.29;100153.75;4917718;29;20036;-75
2021/04/07 05:41:08;;;;;;;15.27;4.28;;;;;;;3.15;97.95;100162.53;4918520;29;20058;-75
2021/04/07 05:43:36;;;;;;;13.00;4.32;;;;;;;3.10;98.07;100165.31;4919577;29;20128;-76
2021/04/07 05:46:02;;;;;;;12.57;3.85;;;;;;;3.11;98.37;100176.75;4921228;29;20102;-75
2021/04/07 05:48:28;;;;;;;16.38;4.28;;;;;;;3.12;98.68;100173.78;4899285;29;20043;-76
2021/04/07 05:50:55;;;;;;;7.78;3.55;;;;;;;3.21;98.44;100166.56;4921436;29;20028;-75
2021/04/07 05:53:21;;;;;;;9.82;3.60;;;;;;;3.31;97.57;100176.84;4901202;29;20028;-74
2021/04/07 05:55:49;;;;;;;10.13;3.63;;;;;;;3.31;97.80;100182.16;4920363;29;20032;-75
2021/04/07 05:58:15;;;;;;;15.98;4.65;;;;;;;3.23;98.11;100172.31;4923739;29;20114;-76
2021/04/07 06:00:42;;;;;;;13.93;4.80;;;;;;;3.25;98.03;100172.78;4921646;29;20483;-76
2021/04/07 06:03:08;;;;;;;13.57;4.65;;;;;;;3.28;97.96;100168.72;4925267;29;20479;-75
2021/04/07 06:05:38;;;;;;;13.07;4.55;;;;;;;3.28;98.11;100169.50;4926748;29;20418;-75
2021/04/07 06:08:05;;;;;;;19.30;4.50;;;;;;;3.31;98.01;100171.53;4919464;29;20040;-75
2021/04/07 06:10:32;;;;;;;11.23;3.78;;;;;;;3.34;98.07;100175.44;4926367;29;20465;-75
2021/04/07 06:12:58;;;;;;;12.10;4.10;;;;;;;3.49;97.34;100183.69;4922067;29;20084;-76
2021/04/07 06:15:24;;;;;;;11.05;5.00;;;;;;;3.56;96.54;100172.56;4925770;29;20062;-77
2021/04/07 06:17:56;;;;;;;15.57;5.20;;;;;;;3.48;96.79;100184.00;4920994;29;20019;-76
2021/04/07 06:20:22;;;;;;;;;;;;;;;3.57;96.73;100176.75;4931823;29;20067;-76
2021/04/07 06:22:48;;;;;;;11.07;4.13;;;;;;;3.57;96.87;100176.75;4920786;29;19995;-76
2021/04/07 06:25:16;;;;;;;14.77;4.32;;;;;;;3.55;97.48;100190.41;4925940;29;20039;-75
2021/04/07 06:27:42;;;;;;;11.50;4.93;;;;;;;3.58;97.63;100187.06;4922970;29;20036;-76
2021/04/07 06:30:08;;;;;;;11.45;4.47;;;;;;;3.57;97.19;100198.06;4923747;29;20035;-76
2021/04/07 06:32:34;;;;;;;9.63;4.10;;;;;;;3.77;96.55;100199.22;4925626;29;20100;-76
2021/04/07 06:34:59;;;;;;;13.30;4.80;;;;;;;3.76;96.78;100201.09;4924501;29;20043;-75
2021/04/07 06:37:25;;;;;;;6.80;3.47;;;;;;;3.84;96.09;100199.50;4921962;29;20060;-75
2021/04/07 06:40:11;;;;;;;10.05;3.83;;;;;;;3.79;96.16;100197.03;4924183;29;20034;-75
2021/04/07 06:42:37;;;;;;;9.85;3.55;;;;;;;3.89;96.06;100194.00;4879052;29;20522;-75
2021/04/07 06:45:04;;;;;;;14.05;3.10;;;;;;;4.01;95.81;100194.88;4891758;29;20067;-75
2021/04/07 06:47:30;;;;;;;8.30;2.92;;;;;;;3.88;95.64;100198.53;4892261;29;20048;-76
2021/04/07 06:49:57;;;;;;;8.90;3.15;;;;;;;4.01;95.62;100204.72;4879835;29;20112;-75
2021/04/07 06:52:24;;;;;;;9.38;3.78;;;;;;;4.01;95.26;100199.41;4891036;29;20028;-75
2021/04/07 06:54:54;;;;;;;11.80;3.65;;;;;;;4.02;95.08;100200.97;4893819;29;20585;-76
2021/04/07 06:57:20;;;;;;;9.70;4.28;;;;;;;4.06;93.88;100204.56;4894370;29;20123;-75
2021/04/07 06:59:48;;;;;;;11.93;4.22;;;;;;;4.01;94.09;100197.53;4893538;29;20174;-76
2021/04/07 07:02:14;;;;;;;11.45;4.70;;;;;;;4.12;94.16;100197.94;4893360;29;20508;-75
2021/04/07 07:04:40;;;;;;;11.02;5.03;;;;;;;4.08;94.48;100200.47;4895783;29;20072;-76
2021/04/07 07:07:07;;;;;;;12.80;4.53;;;;;;;4.20;93.87;100208.53;4890065;29;20044;-76
2021/04/07 07:09:33;;;;;;;6.85;3.83;;;;;;;4.15;93.61;100210.63;4892817;29;20032;-75
2021/04/07 07:12:00;;;;;;;9.85;3.88;;;;;;;4.12;92.80;100205.94;4893785;29;20065;-76
2021/04/07 07:14:26;;;;;;;10.02;3.83;;;;;;;4.07;93.00;100201.56;4893629;29;20585;-76
2021/04/07 07:16:52;;;;;;;10.73;4.03;;;;;;;4.13;93.02;100210.94;4893550;29;20124;-76
2021/04/07 07:19:34;;;;;;;10.10;4.30;;;;;;;4.10;93.50;100210.81;4901542;29;20421;-76
2021/04/07 07:22:03;;;;;;;8.43;4.05;;;;;;;4.08;93.40;100221.78;4925116;29;20086;-75
2021/04/07 07:24:39;;;;;;;8.15;4.00;;;;;;;4.17;92.97;100219.84;4921774;29;20433;-76
2021/04/07 07:27:07;;;;;;;12.48;4.30;;;;;;;4.15;93.38;100215.94;4918115;29;20046;-76
2021/04/07 07:29:35;;;;;;;11.63;4.63;;;;;;;4.12;93.43;100220.00;4923926;29;20046;-76
2021/04/07 07:32:04;;;;;;;11.27;5.10;;;;;;;4.19;93.38;100220.31;4921812;29;20091;-76
2021/04/07 07:34:30;;;;;;;12.77;5.40;;;;;;;4.15;93.73;100221.25;4919640;29;20054;-75
2021/04/07 07:36:57;;;;;;;9.18;4.97;;;;;;;4.07;93.72;100219.44;4916995;29;20032;-76
2021/04/07 07:39:26;;;;;;;9.48;4.25;;;;;;;4.16;93.53;100228.16;4907945;29;20062;-75
2021/04/07 07:41:55;;;;;;;8.98;4.45;;;;;;;4.14;93.40;100227.72;4924845;29;20035;-75
2021/04/07 07:44:23;;;;;;;10.38;4.32;;;;;;;3.97;93.88;100238.47;4920375;29;20099;-75
2021/04/07 07:49:41;;;;;;;11.02;4.35;;;;;;;4.11;93.95;100231.78;4919846;29;20496;-76
2021/04/07 07:52:07;;;;;;;11.00;4.63;;;;;;;4.08;94.08;100235.13;4917724;29;20051;-76
2021/04/07 07:54:32;;;;;;;6.28;3.90;;;;;;;4.23;94.28;100233.75;4920255;29;20039;-74
2021/04/07 07:56:58;;;;;;;9.82;3.75;;;;;;;4.29;93.60;100245.81;4920644;29;20174;-76
2021/04/07 07:59:30;;;;;;;7.28;3.42;;;;;;;4.30;93.83;100242.00;4921949;29;20091;-74
2021/04/07 08:01:57;;;;;;;5.55;2.75;;;;;;;4.16;95.16;100233.50;4918644;29;20032;-76
2021/04/07 08:04:23;;;;;;;8.98;2.88;;;;;;;4.20;94.74;100245.84;4919901;29;20032;-74
2021/04/07 08:06:49;;;;;;;5.70;2.72;;;;;;;4.24;94.70;100246.75;4916544;29;20604;-76
2021/04/07 08:09:18;;;;;;;9.55;2.60;;;;;;;4.37;94.48;100248.41;4917868;29;20054;-75
2021/04/07 08:11:45;;;;;;;5.65;2.47;;;;;;;4.34;94.82;100250.94;4918910;29;20035;-75
2021/04/07 08:14:21;;;;;;;6.95;2.90;;;;;;;4.40;94.11;100249.63;4922475;29;20040;-75
2021/04/07 08:16:47;;;;;;;7.30;3.05;;;;;;;4.33;94.39;100239.50;4920794;29;20032;-75
2021/04/07 08:19:14;;;;;;;6.22;2.85;;;;;;;4.33;94.47;100244.06;4917932;29;20075;-77
2021/04/07 08:21:42;;;;;;;4.78;3.00;;;;;;;4.31;94.55;100248.91;4924040;29;20035;-75
2021/04/07 08:24:09;;;;;;;8.05;2.88;;;;;;;4.30;95.23;100258.78;4923584;29;20043;-74
2021/04/07 08:26:39;;;;;;;6.45;2.88;;;;;;;4.49;94.36;100256.47;4907202;29;20126;-75
2021/04/07 08:29:07;;;;;;;5.93;2.70;;;;;;;4.40;94.73;100250.44;4922970;29;20031;-75
2021/04/07 08:31:34;;;;;;;4.80;3.20;;;;;;;4.42;94.91;100250.09;4921776;29;20036;-76
2021/04/07 08:34:06;;;;;;;6.97;2.92;;;;;;;4.49;94.83;100250.38;4920301;29;20548;-76
2021/04/07 08:36:32;;;;;;;5.95;3.00;;;;;;;4.54;95.23;100256.31;4919065;29;20039;-75
2021/04/07 08:39:00;;;;;;;6.30;2.85;;;;;;;4.57;94.73;100252.19;4919542;29;20130;-74
2021/04/07 08:41:27;;;;;;;7.75;3.13;;;;;;;4.63;94.34;100266.13;4920193;29;20071;-75
2021/04/07 08:43:53;;;;;;;5.47;2.72;;;;;;;4.60;94.63;100259.56;4922092;29;20084;-75
2021/04/07 08:46:23;;;;;;;4.65;2.75;;;;;;;4.65;94.62;100262.03;4921074;29;20048;-75
2021/04/07 08:48:50;;;;;;;8.15;2.85;;;;;;;4.63;95.05;100269.56;4919528;29;20059;-75
2021/04/07 08:51:18;;;;;;;4.78;2.92;;;;;;;4.62;95.13;100254.69;4920941;29;20086;-75
2021/04/07 08:53:47;;;;;;;7.53;3.45;;;;;;;4.80;94.52;100261.44;4919266;29;20036;-76
2021/04/07 08:56:16;;;;;;;10.80;3.70;;;;;;;4.69;95.05;100260.25;4907686;29;20568;-76
2021/04/07 08:58:51;;;;;;;6.68;3.25;;;;;;;4.56;95.32;100261.31;4923146;29;20090;-75
2021/04/07 09:01:23;;;;;;;7.88;3.78;;;;;;;4.61;95.90;100263.78;4919908;29;20493;-75
2021/04/07 09:03:49;;;;;;;6.03;3.65;;;;;;;4.63;95.68;100260.81;4921276;29;20514;-75
2021/04/07 09:06:14;;;;;;;8.02;3.88;;;;;;;4.58;96.11;100275.09;4921628;29;20213;-75
2021/04/07 09:08:52;;;;;;;8.65;3.78;;;;;;;4.62;95.37;100273.34;4917487;29;20040;-76
2021/04/07 09:11:32;;;;;;;9.20;4.47;;;;;;;4.62;95.53;100281.34;4912177;29;20054;-75
2021/04/07 09:14:00;;;;;;;10.65;4.78;;;;;;;4.63;95.42;100269.56;4899914;29;20869;-74
2021/04/07 09:16:34;;;;;;;9.52;5.13;;;;;;;4.68;95.13;100268.59;4925908;29;20044;-75
2021/04/07 09:19:11;;;;;;;12.75;5.00;;;;;;;4.56;95.85;100274.63;4916163;29;20433;-74
2021/04/07 09:21:37;;;;;;;8.38;5.00;;;;;;;4.56;96.68;100270.09;4918955;29;20118;-75
2021/04/07 09:24:15;;;;;;;11.60;5.13;;;;;;;4.69;96.15;100278.16;4920821;29;20429;-75
2021/04/07 09:26:45;;;;;;;8.55;4.38;;;;;;;4.75;95.69;100272.31;4920077;29;20036;-76
2021/04/07 09:29:13;;;;;;;8.60;4.78;;;;;;;4.78;95.88;100276.22;4920669;29;20040;-74
2021/04/07 09:31:39;;;;;;;9.32;4.28;;;;;;;4.67;96.02;100273.13;4927381;29;20174;-75
2021/04/07 09:34:05;;;;;;;7.25;3.83;;;;;;;4.67;95.84;100278.47;4934339;29;20067;-75
2021/04/07 09:36:36;;;;;;;10.77;3.70;;;;;;;4.74;96.32;100275.31;4927552;29;20063;-75
2021/04/07 09:39:04;;;;;;;8.82;4.03;;;;;;;4.80;95.85;100268.66;4929549;29;20028;-75
2021/04/07 09:41:35;;;;;;;9.13;4.07;;;;;;;4.89;95.56;100277.38;4931262;29;20091;-74
2021/04/07 09:44:03;;;;;;;7.70;3.38;;;;;;;4.82;95.66;100261.88;4929848;28;20042;-74
2021/04/07 09:46:28;;;;;;;8.30;4.15;;;;;;;4.89;96.21;100277.38;4934651;29;20031;-74
2021/04/07 09:48:55;;;;;;;8.55;3.92;;;;;;;4.86;96.14;100270.03;4932903;29;20043;-75
2021/04/07 09:51:31;;;;;;;7.15;4.00;;;;;;;4.80;96.57;100264.09;4925306;29;20033;-74
2021/04/07 09:54:12;;;;;;;7.13;4.30;;;;;;;4.98;96.36;100268.19;4926817;29;20063;-75
2021/04/07 09:56:49;;;;;;;7.57;4.05;;;;;;;4.98;96.65;100270.06;4926850;29;20051;-75
2021/04/07 09:59:15;;;;;;;8.32;4.18;;;;;;;5.15;96.50;100257.38;4928447;29;20122;-74
2021/04/07 10:01:41;;;;;;;8.15;3.95;;;;;;;5.30;96.28;100262.09;4923843;28;20044;-74
2021/04/07 10:04:07;;;;;;;5.43;3.78;;;;;;;5.40;95.29;100260.91;4924648;28;20043;-75
2021/04/07 10:06:33;;;;;;;6.25;3.35;;;;;;;5.42;94.95;100264.00;4919962;29;20086;-75
2021/04/07 10:09:01;;;;;;;5.93;3.58;;;;;;;5.16;95.80;100272.28;4922761;29;20121;-75
2021/04/07 10:11:27;;;;;;;6.97;3.65;;;;;;;5.17;95.45;100263.16;4919591;29;20062;-75
2021/04/07 10:13:58;;;;;;;5.85;2.97;;;;;;;5.20;95.60;100261.72;4929424;28;20062;-76
2021/04/07 10:16:24;;;;;;;7.57;3.78;;;;;;;5.23;95.11;100277.06;4905483;29;20047;-74
2021/04/07 10:18:50;;;;;;;7.88;3.30;;;;;;;5.26;95.29;100276.44;4924565;29;20606;-75
2021/04/07 10:21:18;;;;;;;6.80;3.60;;;;;;;5.26;95.58;100277.22;4924770;29;20067;-75
2021/04/07 10:23:46;;;;;;;4.50;3.22;;;;;;;5.27;95.53;100270.75;4924319;29;20131;-75
2021/04/07 10:26:12;;;;;;;5.85;3.63;;;;;;;5.31;95.88;100262.88;4920014;29;20047;-75
2021/04/07 10:28:38;;;;;;;6.55;3.08;;;;;;;5.40;94.95;100269.69;4920910;29;20056;-75
2021/04/07 10:31:11;;;;;;;6.53;3.22;;;;;;;5.47;94.81;100267.28;4919137;29;20032;-75
2021/04/07 10:33:37;;;;;;;4.93;2.67;;;;;;;5.58;94.46;100274.84;4920062;29;20047;-74
2021/04/07 10:36:04;;;;;;;4.78;2.75;;;;;;;5.70;94.76;100277.56;4923851;29;20078;-75
2021/04/07 10:38:31;;;;;;;3.25;2.40;;;;;;;5.72;93.65;100270.00;4921021;29;20028;-74
2021/04/07 10:41:00;;;;;;;3.65;2.72;;;;;;;5.79;94.07;100272.91;4921282;29;20055;-74
2021/04/07 10:43:31;;;;;;;5.03;2.85;;;;;;;5.92;93.79;100267.25;4928547;29;20039;-75
2021/04/07 10:45:59;;;;;;;3.53;2.50;;;;;;;6.39;94.32;100265.69;4923421;29;20112;-75
2021/04/07 10:48:25;;;;;;;3.85;2.60;;;;;;;6.85;91.67;100260.94;4923454;29;20032;-74
2021/04/07 10:50:51;;;;;;;4.45;2.10;;;;;;;7.03;90.75;100263.00;4919619;29;20541;-74
2021/04/07 10:53:27;;;;;;;3.63;2.28;;;;;;;7.09;89.67;100258.94;4919286;29;20394;-74
2021/04/07 10:55:53;;;;;;;3.88;2.38;;;;;;;7.23;88.40;100259.34;4926823;29;20050;-75
2021/04/07 10:58:26;;;;;;;5.82;2.60;;;;;;;7.38;86.77;100257.03;4925545;29;20032;-75
2021/04/07 11:00:51;;;;;;;4.38;2.70;;;;;;;7.34;86.81;100264.97;4932060;29;20162;-75
2021/04/07 11:03:29;;;;;;;3.10;2.75;;;;;;;7.37;86.99;100260.84;4927577;28;20115;-73
2021/04/07 11:05:55;;;;;;;4.25;2.17;;;;;;;7.35;86.76;100252.38;4933507;29;20082;-74
2021/04/07 11:08:53;;;;;;;7.40;3.00;;;;;;;7.30;87.03;100246.13;4908093;29;20054;-75
2021/04/07 11:11:21;;;;;;;3.67;2.42;;;;;;;7.28;86.84;100260.97;4912275;29;20060;-76
2021/04/07 11:13:48;;;;;;;5.20;2.67;;;;;;;6.93;88.40;100250.09;4930595;29;20042;-76
2021/04/07 11:16:14;;;;;;;3.55;2.58;;;;;;;6.91;88.11;100252.31;4929351;29;20043;-75
2021/04/07 11:18:40;;;;;;;6.10;2.70;;;;;;;7.14;89.45;100247.22;4927233;29;20517;-76
2021/04/07 11:21:09;;;;;;;5.18;3.10;;;;;;;7.23;89.03;100245.19;4925195;29;20031;-75
2021/04/07 11:23:37;;;;;;;4.57;2.80;;;;;;;7.16;88.77;100243.06;4927274;29;20115;-75
2021/04/07 11:26:07;;;;;;;4.45;2.80;;;;;;;7.01;87.87;100246.50;4928625;29;20164;-76
2021/04/07 11:28:33;;;;;;;5.82;3.22;;;;;;;7.09;89.05;100253.59;4926554;29;20032;-75
2021/04/07 11:31:05;;;;;;;4.30;2.95;;;;;;;7.10;87.83;100249.78;4923447;29;20076;-75
2021/04/07 11:33:56;;;;;;;2.55;2.25;;;;;;;7.00;89.22;100247.63;4917722;29;20796;-75